Time;durP1;ratioP1;P1;durP2;ratioP2;P2;SDS_P1;SDS_P2;PMS_P1;PMS_P2;Temp;Humidity;BMP_temperature;BMP_pressure;BME280_temperature;BME280_humidity;BME280_pressure;Samples;Min_cycle;Max_cycle;Signal;HPM_P1;HPM_P2
2022/03/29 00:01:58;;;;;;;22.07;10.23;;;7.10;61.00;;;;;;5032130;28;20891;-70
2022/03/29 00:04:24;;;;;;;18.50;10.03;;;7.10;61.00;;;;;;5032217;28;20621;-70
2022/03/29 00:06:50;;;;;;;20.40;9.27;;;7.10;61.10;;;;;;5032063;28;20268;-70
2022/03/29 00:09:16;;;;;;;23.03;9.87;;;7.10;61.00;;;;;;5032754;28;20655;-70
2022/03/29 00:11:42;;;;;;;21.50;9.70;;;7.10;61.10;;;;;;5033078;28;20516;-70
2022/03/29 00:14:08;;;;;;;18.33;8.70;;;7.30;60.90;;;;;;5033152;28;20285;-70
2022/03/29 00:16:35;;;;;;;18.70;9.90;;;7.30;60.80;;;;;;5033567;28;20263;-70
2022/03/29 00:19:01;;;;;;;20.47;9.47;;;7.30;60.80;;;;;;5032745;28;20188;-70
2022/03/29 00:21:27;;;;;;;17.93;8.53;;;7.20;61.20;;;;;;5032326;28;20173;-70
2022/03/29 00:23:53;;;;;;;19.97;8.43;;;7.00;61.60;;;;;;5014204;28;20269;-70
2022/03/29 00:26:19;;;;;;;15.83;8.53;;;6.90;62.10;;;;;;5028632;28;20184;-70
2022/03/29 00:28:45;;;;;;;19.67;9.23;;;7.00;62.10;;;;;;5012040;28;20178;-70
2022/03/29 00:31:12;;;;;;;20.53;9.57;;;7.10;61.80;;;;;;5012480;28;20168;-70
2022/03/29 00:33:38;;;;;;;21.83;9.17;;;7.10;61.70;;;;;;5012195;28;20224;-70
2022/03/29 00:36:04;;;;;;;18.07;8.93;;;6.90;62.10;;;;;;5024232;28;20192;-70
2022/03/29 00:38:30;;;;;;;17.20;9.07;;;6.70;62.50;;;;;;5034804;28;20179;-71
2022/03/29 00:40:57;;;;;;;20.20;10.30;;;6.70;63.00;;;;;;5035859;28;20175;-70
2022/03/29 00:43:24;;;;;;;21.27;10.03;;;6.60;63.40;;;;;;5036221;28;20175;-71
2022/03/29 00:45:50;;;;;;;18.80;10.13;;;6.50;63.90;;;;;;5036157;28;20193;-70
2022/03/29 00:48:15;;;;;;;30.77;10.57;;;6.40;64.30;;;;;;5035651;28;20185;-70
2022/03/29 00:50:43;;;;;;;27.80;10.13;;;6.60;64.30;;;;;;5035864;28;20178;-70
2022/03/29 00:53:10;;;;;;;24.60;10.53;;;6.50;64.40;;;;;;5035863;28;20213;-70
2022/03/29 00:55:36;;;;;;;22.43;9.83;;;6.40;64.90;;;;;;5035971;28;20189;-70
2022/03/29 00:58:03;;;;;;;20.70;10.07;;;6.40;65.00;;;;;;5035457;28;20182;-70
2022/03/29 01:00:31;;;;;;;23.10;11.07;;;6.30;65.00;;;;;;5035910;28;20527;-70
2022/03/29 01:02:58;;;;;;;28.33;13.17;;;6.20;65.40;;;;;;5035460;28;20259;-70
2022/03/29 01:05:26;;;;;;;24.87;12.60;;;6.10;65.50;;;;;;5035438;28;21022;-71
2022/03/29 01:07:56;;;;;;;25.07;12.50;;;6.10;65.70;;;;;;5035616;28;20630;-72
2022/03/29 01:10:23;;;;;;;21.87;10.70;;;6.00;66.20;;;;;;5035708;28;20193;-70
2022/03/29 01:12:49;;;;;;;21.37;11.90;;;5.90;66.00;;;;;;5035341;28;20218;-70
2022/03/29 01:15:16;;;;;;;21.27;10.20;;;6.00;66.30;;;;;;5035401;28;20266;-70
2022/03/29 01:17:43;;;;;;;18.87;9.37;;;6.10;65.80;;;;;;5035147;28;20176;-69
2022/03/29 01:20:21;;;;;;;17.10;9.83;;;6.30;65.30;;;;;;5035429;28;20190;-70
2022/03/29 01:22:48;;;;;;;17.73;9.37;;;6.40;65.00;;;;;;5017421;28;20614;-70
2022/03/29 01:25:19;;;;;;;19.80;9.13;;;6.30;64.90;;;;;;5035277;28;20479;-70
2022/03/29 01:27:48;;;;;;;15.87;7.83;;;6.30;65.00;;;;;;5002032;28;20184;-70
2022/03/29 01:30:14;;;;;;;19.00;9.83;;;6.30;65.30;;;;;;5015589;28;20267;-70
2022/03/29 01:32:45;;;;;;;22.27;9.73;;;6.20;65.50;;;;;;5015311;28;20274;-70
2022/03/29 01:35:12;;;;;;;17.20;10.03;;;6.10;65.70;;;;;;5020324;28;20705;-71
2022/03/29 01:37:39;;;;;;;20.80;9.93;;;6.10;65.80;;;;;;5035139;28;20529;-70
2022/03/29 01:40:07;;;;;;;18.13;9.43;;;6.10;66.30;;;;;;5034782;28;20247;-70
2022/03/29 01:42:33;;;;;;;21.03;9.47;;;6.00;66.60;;;;;;5034834;28;20175;-70
2022/03/29 01:45:00;;;;;;;20.73;10.70;;;6.00;67.10;;;;;;5034706;28;20174;-70
2022/03/29 01:47:26;;;;;;;21.87;9.63;;;6.00;67.30;;;;;;5035004;28;20207;-70
2022/03/29 01:49:52;;;;;;;22.33;9.93;;;6.00;67.30;;;;;;5033819;28;20250;-70
2022/03/29 01:52:19;;;;;;;17.37;9.07;;;5.90;67.40;;;;;;5034865;28;20220;-70
2022/03/29 01:54:46;;;;;;;22.80;10.00;;;5.90;67.50;;;;;;5034694;28;20297;-70
2022/03/29 01:57:12;;;;;;;21.13;9.43;;;5.80;67.80;;;;;;5034583;28;20267;-70
2022/03/29 02:02:22;;;;;;;26.83;11.93;;;5.70;68.40;;;;;;5034708;28;20166;-70
2022/03/29 02:04:48;;;;;;;21.03;10.07;;;5.70;68.70;;;;;;5034134;28;20171;-70
2022/03/29 02:07:14;;;;;;;25.27;9.63;;;5.60;68.70;;;;;;5034722;28;20224;-70
2022/03/29 02:09:40;;;;;;;24.83;10.53;;;5.60;69.00;;;;;;5034369;28;20197;-71
2022/03/29 02:12:06;;;;;;;20.27;9.87;;;5.50;69.30;;;;;;5034246;28;20619;-69
2022/03/29 02:14:34;;;;;;;19.97;9.57;;;5.40;69.40;;;;;;5034333;28;20214;-69
2022/03/29 02:17:00;;;;;;;22.67;10.10;;;5.50;69.80;;;;;;5033758;28;20190;-69
2022/03/29 02:19:26;;;;;;;16.70;9.50;;;5.50;69.80;;;;;;5034428;28;20258;-69
2022/03/29 02:21:52;;;;;;;20.27;9.70;;;5.60;69.70;;;;;;5043324;28;20252;-69
2022/03/29 02:24:18;;;;;;;19.37;9.03;;;5.70;69.50;;;;;;5035264;28;20614;-70
2022/03/29 02:26:43;;;;;;;20.20;9.17;;;5.80;69.10;;;;;;5038623;28;20219;-70
2022/03/29 02:29:10;;;;;;;21.57;9.47;;;5.90;68.90;;;;;;5053870;28;20183;-70
2022/03/29 02:31:36;;;;;;;19.00;8.83;;;5.90;68.80;;;;;;5055995;28;20495;-69
2022/03/29 02:34:02;;;;;;;21.37;9.40;;;5.90;68.60;;;;;;5054957;28;20236;-71
2022/03/29 02:36:28;;;;;;;19.93;9.57;;;5.90;68.70;;;;;;5040072;28;20182;-71
2022/03/29 02:38:54;;;;;;;19.37;9.57;;;5.80;68.90;;;;;;5035367;28;20181;-71
2022/03/29 02:41:20;;;;;;;23.20;9.67;;;5.70;69.60;;;;;;5033507;28;20183;-70
2022/03/29 02:43:46;;;;;;;19.07;9.50;;;5.50;70.10;;;;;;5033979;28;20283;-70
2022/03/29 02:46:11;;;;;;;18.77;9.67;;;5.40;70.70;;;;;;5033527;28;20206;-70
2022/03/29 02:48:37;;;;;;;18.30;9.27;;;5.30;71.40;;;;;;5033697;28;20297;-70
2022/03/29 02:51:03;;;;;;;26.77;10.13;;;5.30;71.80;;;;;;5033054;28;20211;-71
2022/03/29 02:53:28;;;;;;;20.63;9.83;;;5.30;72.30;;;;;;5033506;28;20205;-70
2022/03/29 02:55:54;;;;;;;20.97;10.73;;;5.20;72.70;;;;;;5033148;28;20572;-70
2022/03/29 02:58:20;;;;;;;23.27;10.53;;;5.10;73.20;;;;;;5033594;28;20190;-70
2022/03/29 03:00:46;;;;;;;21.37;9.93;;;5.10;73.70;;;;;;5032674;28;20182;-71
2022/03/29 03:03:11;;;;;;;25.07;11.03;;;5.10;74.00;;;;;;5033154;28;20195;-71
2022/03/29 03:05:37;;;;;;;27.43;10.57;;;5.00;74.20;;;;;;5034146;28;20181;-71
2022/03/29 03:08:03;;;;;;;23.97;9.87;;;5.10;74.30;;;;;;5015172;28;20229;-70
2022/03/29 03:10:30;;;;;;;21.13;10.20;;;5.20;73.90;;;;;;5033384;28;20186;-70
2022/03/29 03:12:56;;;;;;;23.27;10.93;;;5.30;73.40;;;;;;5032957;28;20284;-70
2022/03/29 03:15:23;;;;;;;23.63;12.67;;;5.30;73.10;;;;;;5015321;28;20179;-71
2022/03/29 03:17:54;;;;;;;24.40;12.27;;;5.30;73.30;;;;;;5032985;28;20179;-70
2022/03/29 03:20:21;;;;;;;27.30;11.27;;;5.30;73.40;;;;;;5032798;28;20182;-71
2022/03/29 03:22:48;;;;;;;27.00;10.53;;;5.30;73.60;;;;;;5032996;28;20262;-70
2022/03/29 03:25:13;;;;;;;22.53;11.17;;;5.20;73.70;;;;;;5033004;28;20178;-71
2022/03/29 03:27:40;;;;;;;24.23;10.30;;;5.20;74.10;;;;;;5026125;28;20194;-71
2022/03/29 03:30:13;;;;;;;19.87;9.97;;;5.10;74.10;;;;;;5032447;28;20182;-71
2022/03/29 03:32:39;;;;;;;23.73;10.27;;;5.20;73.80;;;;;;5032849;28;20190;-72
2022/03/29 03:35:06;;;;;;;20.70;9.10;;;5.30;73.50;;;;;;5027536;28;20237;-71
2022/03/29 03:37:33;;;;;;;24.40;9.80;;;5.30;73.40;;;;;;5012400;28;20568;-71
2022/03/29 03:39:59;;;;;;;20.10;9.67;;;5.30;73.40;;;;;;5012745;28;20184;-71
2022/03/29 03:42:25;;;;;;;21.03;9.53;;;5.30;73.20;;;;;;5012890;28;20187;-70
2022/03/29 03:44:50;;;;;;;19.83;9.80;;;5.40;73.00;;;;;;5012628;28;20175;-70
2022/03/29 03:47:16;;;;;;;23.87;9.63;;;5.40;72.90;;;;;;5013092;28;20589;-72
2022/03/29 03:49:42;;;;;;;25.53;10.63;;;5.40;72.80;;;;;;5012798;28;20231;-71
2022/03/29 03:52:10;;;;;;;25.07;10.30;;;5.40;72.50;;;;;;4994902;28;20206;-71
2022/03/29 03:54:36;;;;;;;20.57;9.97;;;5.70;72.10;;;;;;5012675;28;20238;-71
2022/03/29 03:57:03;;;;;;;20.67;10.63;;;5.80;71.40;;;;;;5012237;28;20180;-71
2022/03/29 03:59:28;;;;;;;25.43;10.10;;;5.90;70.80;;;;;;5012812;28;20178;-72
2022/03/29 04:01:54;;;;;;;23.93;10.33;;;6.00;70.70;;;;;;5012541;28;20181;-69
2022/03/29 04:04:20;;;;;;;20.53;9.67;;;6.00;70.40;;;;;;4978882;28;20650;-71
2022/03/29 04:06:45;;;;;;;20.00;9.37;;;6.00;70.10;;;;;;4994887;28;20250;-71
2022/03/29 04:09:11;;;;;;;20.97;9.20;;;6.10;69.90;;;;;;5012405;28;20179;-71
2022/03/29 04:11:37;;;;;;;19.97;9.73;;;6.10;69.70;;;;;;4978431;28;20214;-71
2022/03/29 04:14:03;;;;;;;22.97;9.63;;;6.10;69.50;;;;;;5011842;28;20207;-72
2022/03/29 04:16:28;;;;;;;21.37;9.23;;;6.10;69.50;;;;;;5011840;28;20191;-71
2022/03/29 04:18:54;;;;;;;28.43;11.43;;;6.20;69.50;;;;;;5012025;28;20171;-70
2022/03/29 04:21:20;;;;;;;22.30;8.77;;;6.20;69.30;;;;;;5012065;28;20215;-70
2022/03/29 04:23:45;;;;;;;22.27;8.97;;;6.20;69.00;;;;;;5012246;28;20215;-71
2022/03/29 04:26:11;;;;;;;22.40;10.07;;;6.20;69.00;;;;;;5013719;28;20184;-70
2022/03/29 04:28:37;;;;;;;18.80;8.13;;;6.30;69.00;;;;;;5031844;28;20181;-71
2022/03/29 04:31:03;;;;;;;20.63;9.47;;;6.20;68.70;;;;;;5031738;28;20175;-70
2022/03/29 04:33:29;;;;;;;20.40;8.97;;;6.30;68.70;;;;;;5031227;28;20211;-71
2022/03/29 04:35:56;;;;;;;22.97;10.17;;;6.30;68.70;;;;;;5013505;28;20184;-71
2022/03/29 04:38:23;;;;;;;24.03;9.37;;;6.40;68.60;;;;;;5031667;28;20236;-71
2022/03/29 04:40:49;;;;;;;22.50;10.03;;;6.50;68.60;;;;;;5031080;28;20238;-71
2022/03/29 04:43:15;;;;;;;26.40;11.10;;;6.50;68.60;;;;;;5031176;28;20600;-71
2022/03/29 04:45:41;;;;;;;34.13;11.40;;;6.60;68.60;;;;;;5031671;28;20212;-72
2022/03/29 04:48:07;;;;;;;32.77;12.07;;;6.60;69.30;;;;;;5035649;28;20190;-71
2022/03/29 04:50:33;;;;;;;26.87;10.73;;;6.70;68.70;;;;;;5034075;28;20184;-71
2022/03/29 04:52:59;;;;;;;26.17;11.23;;;6.80;68.60;;;;;;5032168;28;20211;-71
2022/03/29 04:55:25;;;;;;;30.13;11.80;;;6.90;68.60;;;;;;5037567;28;20339;-72
2022/03/29 04:57:51;;;;;;;34.20;13.80;;;7.00;68.70;;;;;;5032177;28;20188;-73
2022/03/29 05:00:20;;;;;;;28.57;11.70;;;7.10;68.50;;;;;;5031614;28;20172;-72
2022/03/29 05:02:47;;;;;;;31.97;13.83;;;7.20;68.50;;;;;;5031162;28;20189;-71
2022/03/29 05:05:13;;;;;;;31.70;13.10;;;7.40;68.10;;;;;;5030952;28;20648;-71
2022/03/29 05:07:40;;;;;;;35.53;13.37;;;7.50;67.90;;;;;;5012835;28;20662;-72
2022/03/29 05:10:10;;;;;;;32.13;12.87;;;7.60;68.00;;;;;;5030646;28;20564;-72
2022/03/29 05:12:47;;;;;;;38.00;13.37;;;7.70;67.90;;;;;;5030971;28;20179;-73
2022/03/29 05:15:16;;;;;;;35.43;13.43;;;7.90;67.70;;;;;;5031004;28;20167;-72
2022/03/29 05:17:42;;;;;;;26.40;12.83;;;8.00;67.60;;;;;;5031082;28;20256;-72
2022/03/29 05:20:10;;;;;;;29.97;13.90;;;8.20;67.90;;;;;;5030996;28;20266;-73
2022/03/29 05:22:47;;;;;;;41.57;13.87;;;8.30;67.70;;;;;;5031158;28;20607;-71
2022/03/29 05:25:14;;;;;;;29.53;12.83;;;8.50;67.50;;;;;;5032849;28;20174;-72
2022/03/29 05:27:41;;;;;;;28.90;12.20;;;8.70;67.00;;;;;;5034561;28;20232;-71
2022/03/29 05:30:08;;;;;;;29.50;13.03;;;8.80;67.00;;;;;;5034074;28;20183;-72
2022/03/29 05:32:34;;;;;;;34.77;12.87;;;9.00;67.10;;;;;;5016565;28;20183;-72
2022/03/29 05:34:59;;;;;;;39.23;13.90;;;9.10;67.10;;;;;;5030704;28;20190;-73
2022/03/29 05:37:25;;;;;;;29.83;12.07;;;9.30;67.00;;;;;;5014034;28;20307;-64
2022/03/29 05:39:51;;;;;;;37.90;14.60;;;9.50;66.60;;;;;;5014130;28;20176;-64
2022/03/29 05:42:17;;;;;;;35.80;13.27;;;9.70;66.10;;;;;;5014337;28;20564;-67
2022/03/29 05:44:43;;;;;;;31.83;11.80;;;10.00;65.40;;;;;;5014586;28;20260;-66
2022/03/29 05:49:53;;;;;;;22.93;9.90;;;10.60;63.70;;;;;;5014113;28;20288;-65
2022/03/29 05:52:21;;;;;;;30.20;9.93;;;10.80;62.80;;;;;;4996697;28;20190;-64
2022/03/29 05:54:47;;;;;;;25.40;9.17;;;11.00;62.10;;;;;;5013936;28;20210;-70
2022/03/29 05:57:17;;;;;;;23.30;9.97;;;11.20;61.60;;;;;;5017672;28;20212;-65
2022/03/29 05:59:44;;;;;;;33.53;10.00;;;11.30;61.30;;;;;;5023213;28;20588;-63
2022/03/29 06:02:09;;;;;;;16.67;9.33;;;11.40;60.90;;;;;;5005355;28;20581;-64
2022/03/29 06:04:35;;;;;;;34.93;10.93;;;11.50;61.40;;;;;;5022820;28;20196;-75
2022/03/29 06:07:04;;;;;;;29.03;11.70;;;11.60;60.60;;;;;;5023332;28;20183;-75
2022/03/29 06:09:33;;;;;;;32.03;10.50;;;11.70;60.60;;;;;;5022516;28;20662;-75
2022/03/29 06:11:59;;;;;;;25.53;9.50;;;11.70;60.70;;;;;;5029197;28;20196;-64
2022/03/29 06:14:25;;;;;;;21.10;9.00;;;11.80;60.90;;;;;;5023618;28;20262;-62
2022/03/29 06:16:51;;;;;;;33.20;10.20;;;11.90;61.20;;;;;;5022626;28;20663;-66
2022/03/29 06:19:17;;;;;;;19.70;10.33;;;12.10;59.80;;;;;;5021914;28;20194;-71
2022/03/29 06:21:43;;;;;;;29.50;11.13;;;12.20;59.50;;;;;;5018406;28;20200;-69
2022/03/29 06:24:10;;;;;;;30.50;11.40;;;12.30;59.10;;;;;;5020567;28;20201;-68
2022/03/29 06:26:39;;;;;;;28.23;11.27;;;12.40;59.00;;;;;;5021061;28;20244;-70
2022/03/29 06:29:08;;;;;;;24.87;10.57;;;12.60;58.80;;;;;;5020300;28;20213;-69
2022/03/29 06:31:34;;;;;;;22.00;10.40;;;12.70;58.40;;;;;;5019407;28;20197;-68
2022/03/29 06:34:00;;;;;;;19.90;10.63;;;12.80;58.30;;;;;;5022113;28;20221;-70
2022/03/29 06:36:26;;;;;;;33.20;11.87;;;12.90;57.90;;;;;;5019888;28;20213;-68
2022/03/29 06:38:53;;;;;;;22.97;10.13;;;13.10;57.40;;;;;;5022962;28;20184;-68
2022/03/29 06:41:19;;;;;;;18.10;9.13;;;13.20;57.20;;;;;;5021540;28;20268;-69
2022/03/29 06:43:45;;;;;;;18.43;8.97;;;13.40;56.40;;;;;;5021963;28;20188;-68
2022/03/29 06:46:10;;;;;;;19.30;8.30;;;13.60;55.90;;;;;;5020868;28;20187;-69
2022/03/29 06:48:36;;;;;;;14.60;7.73;;;13.80;55.30;;;;;;5020116;28;20688;-68
2022/03/29 06:51:02;;;;;;;18.80;8.57;;;13.90;55.00;;;;;;5021070;28;20215;-69
2022/03/29 06:53:28;;;;;;;21.13;7.23;;;14.00;54.50;;;;;;5020887;28;20203;-69
2022/03/29 06:55:54;;;;;;;18.47;8.00;;;14.00;54.50;;;;;;5021837;28;20198;-69
2022/03/29 06:58:20;;;;;;;21.30;7.80;;;14.10;54.60;;;;;;5019943;28;20186;-70
2022/03/29 07:00:47;;;;;;;13.90;7.50;;;14.10;54.40;;;;;;5021902;28;20226;-69
2022/03/29 07:03:12;;;;;;;17.03;7.33;;;14.10;53.90;;;;;;5022017;28;20532;-69
2022/03/29 07:05:42;;;;;;;17.53;7.67;;;14.10;54.00;;;;;;5004662;28;20515;-69
2022/03/29 07:08:12;;;;;;;20.20;7.33;;;14.10;54.10;;;;;;5010429;28;20214;-69
2022/03/29 07:13:23;;;;;;;16.07;7.83;;;14.10;54.30;;;;;;5020604;28;20588;-71
2022/03/29 07:15:51;;;;;;;14.93;8.23;;;14.20;54.20;;;;;;5021722;28;20213;-70
2022/03/29 07:18:18;;;;;;;17.63;7.47;;;14.20;54.10;;;;;;4999944;28;20245;-69
2022/03/29 07:20:43;;;;;;;23.40;8.17;;;14.30;54.20;;;;;;5000858;28;20198;-70
2022/03/29 07:23:10;;;;;;;24.07;7.47;;;14.30;54.20;;;;;;5027958;28;20212;-69
2022/03/29 07:25:36;;;;;;;15.73;7.80;;;14.40;54.00;;;;;;5021270;28;20662;-69
2022/03/29 07:28:03;;;;;;;23.20;9.00;;;14.40;53.80;;;;;;5028965;28;20525;-69
2022/03/29 07:30:30;;;;;;;26.37;8.47;;;14.30;53.60;;;;;;5022265;28;20184;-69
2022/03/29 07:33:00;;;;;;;14.87;7.47;;;14.30;53.80;;;;;;5031529;28;20277;-69
2022/03/29 07:35:28;;;;;;;26.80;8.40;;;14.20;54.60;;;;;;5029152;28;20257;-69
2022/03/29 07:37:55;;;;;;;13.70;7.77;;;14.20;54.00;;;;;;5029474;28;20641;-70
2022/03/29 07:40:24;;;;;;;19.13;8.00;;;14.20;53.90;;;;;;5022211;28;20199;-69
2022/03/29 07:42:50;;;;;;;21.10;7.80;;;14.20;54.70;;;;;;5026010;28;20193;-70
2022/03/29 07:45:17;;;;;;;22.23;7.77;;;14.20;54.20;;;;;;5023097;28;20559;-69
2022/03/29 07:47:43;;;;;;;15.83;7.60;;;14.20;54.20;;;;;;5025282;28;20190;-70
2022/03/29 07:50:11;;;;;;;17.60;7.43;;;14.20;54.20;;;;;;5024286;28;20223;-68
2022/03/29 07:52:40;;;;;;;17.87;7.90;;;14.20;54.40;;;;;;5024927;28;20642;-69
2022/03/29 07:55:09;;;;;;;20.37;7.53;;;14.30;54.70;;;;;;5012121;28;20180;-68
2022/03/29 07:57:36;;;;;;;15.67;8.30;;;14.40;54.60;;;;;;5024438;28;20642;-69
2022/03/29 08:00:31;;;;;;;16.60;7.03;;;14.50;54.70;;;;;;5015948;28;20199;-70
2022/03/29 08:02:49;;;;;;;16.60;9.33;;;14.60;54.90;;;;;;5031337;28;20194;-70
2022/03/29 08:05:15;;;;;;;14.97;7.13;;;14.70;54.90;;;;;;5030233;28;20199;-69
2022/03/29 08:07:41;;;;;;;17.53;7.43;;;14.80;54.50;;;;;;5015890;28;20206;-69
2022/03/29 08:10:07;;;;;;;14.17;8.10;;;14.80;54.40;;;;;;5018303;28;20211;-63
2022/03/29 08:12:34;;;;;;;26.63;8.60;;;15.00;54.50;;;;;;5021535;28;20222;-71
2022/03/29 08:15:00;;;;;;;13.03;7.90;;;15.20;54.70;;;;;;5027092;28;20216;-72
2022/03/29 08:17:26;;;;;;;17.03;8.23;;;15.40;54.50;;;;;;5012051;28;20274;-69
2022/03/29 08:19:52;;;;;;;15.77;7.40;;;15.60;54.30;;;;;;5010963;28;20282;-69
2022/03/29 08:22:18;;;;;;;15.17;7.77;;;15.80;54.40;;;;;;5010478;28;20181;-69
2022/03/29 08:24:44;;;;;;;22.23;8.20;;;16.00;53.40;;;;;;5010397;28;20190;-70
2022/03/29 08:27:10;;;;;;;18.20;7.57;;;16.10;53.00;;;;;;5020387;28;20642;-70
2022/03/29 08:29:37;;;;;;;22.20;10.10;;;16.30;52.40;;;;;;5030107;28;20179;-70
2022/03/29 08:32:04;;;;;;;15.53;7.50;;;16.30;52.00;;;;;;5030009;28;20192;-70
2022/03/29 08:34:31;;;;;;;16.90;8.10;;;16.50;51.70;;;;;;5030121;28;20209;-71
2022/03/29 08:36:57;;;;;;;18.67;7.50;;;16.50;51.50;;;;;;5010285;28;20202;-70
2022/03/29 08:39:23;;;;;;;14.67;7.30;;;16.50;51.40;;;;;;5009107;28;20627;-70
2022/03/29 08:42:10;;;;;;;23.27;8.57;;;16.60;51.30;;;;;;5010287;28;20218;-70
2022/03/29 08:44:38;;;;;;;15.13;7.53;;;16.70;51.10;;;;;;4991811;28;20603;-69
2022/03/29 08:47:08;;;;;;;13.40;6.97;;;16.70;50.90;;;;;;5009428;28;20528;-70
2022/03/29 08:49:35;;;;;;;13.83;7.03;;;16.70;50.90;;;;;;4988502;28;20235;-70
2022/03/29 08:52:01;;;;;;;22.73;8.33;;;16.90;50.80;;;;;;4991720;28;20680;-67
2022/03/29 08:54:27;;;;;;;15.70;8.43;;;17.00;50.50;;;;;;4991475;28;20224;-70
2022/03/29 08:56:53;;;;;;;11.57;7.60;;;17.10;50.40;;;;;;4991173;28;20580;-71
2022/03/29 08:59:20;;;;;;;15.60;7.13;;;17.10;50.20;;;;;;4990044;28;20246;-71
2022/03/29 09:01:47;;;;;;;18.53;7.70;;;17.20;50.20;;;;;;4995300;28;20602;-70
2022/03/29 09:04:15;;;;;;;10.37;6.00;;;17.30;49.80;;;;;;4994979;28;20223;-71
2022/03/29 09:06:49;;;;;;;16.80;6.93;;;17.40;49.60;;;;;;4994918;28;20173;-71
2022/03/29 09:09:30;;;;;;;12.70;7.20;;;17.50;49.60;;;;;;4994605;28;20254;-72
2022/03/29 09:11:58;;;;;;;20.97;6.90;;;17.50;49.20;;;;;;4995445;28;20235;-72
2022/03/29 09:14:28;;;;;;;13.63;7.00;;;17.50;49.30;;;;;;4994652;28;20208;-70
2022/03/29 09:16:53;;;;;;;13.93;7.30;;;17.50;49.20;;;;;;4993062;28;20203;-69
2022/03/29 09:19:25;;;;;;;14.80;7.13;;;17.40;49.40;;;;;;4993236;28;20294;-69
2022/03/29 09:21:54;;;;;;;13.80;7.00;;;17.50;49.50;;;;;;4994997;28;20180;-71
2022/03/29 09:24:20;;;;;;;11.13;6.47;;;17.60;49.30;;;;;;4994299;28;20268;-71
2022/03/29 09:26:52;;;;;;;14.60;7.57;;;17.70;49.00;;;;;;5001643;28;20183;-71
2022/03/29 09:29:26;;;;;;;17.37;6.10;;;17.70;49.10;;;;;;5013849;28;20229;-69
2022/03/29 09:32:08;;;;;;;11.80;6.93;;;17.80;48.70;;;;;;5013231;28;20204;-71
2022/03/29 09:34:34;;;;;;;11.97;6.87;;;17.80;48.50;;;;;;5014580;28;20234;-70
2022/03/29 09:37:01;;;;;;;12.23;7.07;;;17.80;48.40;;;;;;4994930;28;20671;-69
2022/03/29 09:39:38;;;;;;;10.93;6.87;;;17.80;48.10;;;;;;4994826;28;20208;-70
2022/03/29 09:42:17;;;;;;;14.83;7.23;;;17.90;47.90;;;;;;4993815;28;20196;-69
2022/03/29 09:44:43;;;;;;;14.97;7.13;;;18.00;47.80;;;;;;4994566;28;20934;-72
2022/03/29 09:47:12;;;;;;;15.30;6.90;;;17.90;47.80;;;;;;4993941;28;20192;-70
2022/03/29 09:49:56;;;;;;;11.90;6.30;;;18.00;47.80;;;;;;5006929;28;20238;-72
2022/03/29 09:52:28;;;;;;;9.83;6.10;;;18.10;47.10;;;;;;5014300;28;20619;-71
2022/03/29 09:55:17;;;;;;;14.37;6.83;;;18.20;46.80;;;;;;5013656;28;20207;-70
2022/03/29 09:57:43;;;;;;;13.60;6.63;;;18.20;47.00;;;;;;5013590;28;20187;-70
2022/03/29 10:00:11;;;;;;;14.63;6.00;;;18.40;47.00;;;;;;5012957;28;20184;-69
2022/03/29 10:02:42;;;;;;;11.87;6.17;;;18.40;46.00;;;;;;5013668;28;20176;-70
2022/03/29 10:05:10;;;;;;;12.93;6.70;;;18.60;46.30;;;;;;5013444;28;20266;-71
2022/03/29 10:07:43;;;;;;;25.23;8.63;;;18.60;46.30;;;;;;5013388;28;20203;-70
2022/03/29 10:10:10;;;;;;;10.53;6.27;;;18.70;46.30;;;;;;5012889;28;20264;-70
2022/03/29 10:12:36;;;;;;;12.70;6.33;;;18.90;45.60;;;;;;5014425;28;20475;-72
2022/03/29 10:15:03;;;;;;;12.33;6.77;;;18.80;45.10;;;;;;5012708;28;20655;-71
2022/03/29 10:17:29;;;;;;;15.13;9.00;;;18.80;45.20;;;;;;4994482;28;20540;-71
2022/03/29 10:19:56;;;;;;;13.93;7.07;;;18.90;45.30;;;;;;4995234;28;20183;-68
2022/03/29 10:22:22;;;;;;;12.13;6.30;;;19.00;45.40;;;;;;5012856;28;20175;-71
2022/03/29 10:24:47;;;;;;;14.07;6.10;;;19.20;45.20;;;;;;5012138;28;20190;-70
2022/03/29 10:27:17;;;;;;;11.47;6.57;;;19.30;45.20;;;;;;5024111;28;20526;-71
2022/03/29 10:29:43;;;;;;;13.83;6.80;;;19.10;44.80;;;;;;5032747;28;20175;-72
2022/03/29 10:32:10;;;;;;;14.23;6.80;;;19.10;44.90;;;;;;5032397;28;20622;-70
2022/03/29 10:34:42;;;;;;;14.77;6.87;;;19.00;45.40;;;;;;5014446;28;20209;-70
2022/03/29 10:37:21;;;;;;;11.63;6.43;;;19.20;45.50;;;;;;5012773;28;20188;-71
2022/03/29 10:39:50;;;;;;;15.20;7.00;;;19.30;44.90;;;;;;4995189;28;20171;-71
2022/03/29 10:42:42;;;;;;;14.53;7.20;;;19.60;44.80;;;;;;5012600;28;20322;-71
2022/03/29 10:45:22;;;;;;;15.23;6.70;;;19.70;44.50;;;;;;5012057;28;20192;-71
2022/03/29 10:47:58;;;;;;;13.63;6.95;;;19.80;44.20;;;;;;5012878;28;20262;-70
2022/03/29 10:50:47;;;;;;;15.60;6.78;;;20.10;44.00;;;;;;5012692;28;20282;-73
2022/03/29 10:53:26;;;;;;;17.52;8.10;;;19.80;44.00;;;;;;5012185;28;20211;-73
2022/03/29 10:56:17;;;;;;;15.70;8.05;;;20.10;44.40;;;;;;5012408;28;20183;-71
2022/03/29 10:59:04;;;;;;;12.50;7.28;;;20.30;44.10;;;;;;4994977;28;20609;-71
2022/03/29 11:01:32;;;;;;;11.77;6.55;;;20.20;44.40;;;;;;5012160;28;20184;-70
2022/03/29 11:04:17;;;;;;;13.90;7.10;;;20.20;44.00;;;;;;5012516;28;20195;-71
2022/03/29 11:07:04;;;;;;;19.48;7.78;;;20.40;44.10;;;;;;5012447;28;20314;-72
2022/03/29 11:09:31;;;;;;;11.07;7.13;;;20.70;43.50;;;;;;4994858;28;20290;-72
2022/03/29 11:11:56;;;;;;;21.40;11.10;;;20.50;43.40;;;;;;5012167;28;20280;-71
2022/03/29 11:14:33;;;;;;;24.90;10.77;;;20.90;43.60;;;;;;4994186;28;20644;-70
2022/03/29 11:17:14;;;;;;;16.50;7.18;;;21.50;42.50;;;;;;5011869;28;20235;-71
2022/03/29 11:19:44;;;;;;;17.48;6.63;;;21.80;42.00;;;;;;5012132;28;20596;-70
2022/03/29 11:22:23;;;;;;;14.90;7.30;;;21.80;41.40;;;;;;5010511;28;20179;-69
2022/03/29 11:24:50;;;;;;;13.80;6.75;;;21.40;41.30;;;;;;5011839;28;20253;-71
2022/03/29 11:27:26;;;;;;;11.60;6.60;;;21.30;42.00;;;;;;5006056;28;20194;-72
2022/03/29 11:29:52;;;;;;;13.63;7.55;;;21.80;41.60;;;;;;5031200;28;20218;-70
2022/03/29 11:32:19;;;;;;;14.52;7.22;;;21.80;41.10;;;;;;5031660;28;20197;-70
2022/03/29 11:34:50;;;;;;;18.15;7.60;;;22.20;40.80;;;;;;5031015;28;20261;-70
2022/03/29 11:37:33;;;;;;;12.70;6.03;;;22.50;40.20;;;;;;4994372;28;20617;-71
2022/03/29 11:40:01;;;;;;;24.08;8.38;;;22.70;40.00;;;;;;4994680;28;20167;-72
2022/03/29 11:42:51;;;;;;;18.10;7.40;;;23.30;40.10;;;;;;5012064;28;20180;-71
2022/03/29 11:45:18;;;;;;;13.82;6.75;;;23.60;38.80;;;;;;5012327;28;20195;-70
2022/03/29 11:48:17;;;;;;;12.00;7.30;;;23.60;38.00;;;;;;4994550;28;20176;-70
2022/03/29 11:50:45;;;;;;;14.35;7.00;;;24.90;36.60;;;;;;4993032;28;20199;-70
2022/03/29 11:53:30;;;;;;;13.45;6.50;;;24.90;35.90;;;;;;5011315;28;20215;-70
2022/03/29 11:55:56;;;;;;;15.55;7.15;;;24.10;36.40;;;;;;5011045;28;20195;-70
2022/03/29 11:58:30;;;;;;;18.23;6.78;;;23.70;37.20;;;;;;5011457;28;20176;-70
2022/03/29 12:01:17;;;;;;;14.07;7.20;;;22.80;38.00;;;;;;5011238;28;20184;-70
2022/03/29 12:03:45;;;;;;;11.98;7.15;;;22.20;39.30;;;;;;5010864;28;20199;-71
2022/03/29 12:06:20;;;;;;;14.32;7.13;;;23.50;38.50;;;;;;4993610;28;20278;-71
2022/03/29 12:08:54;;;;;;;13.02;6.40;;;24.50;36.10;;;;;;5011516;28;20182;-71
2022/03/29 12:11:42;;;;;;;9.50;6.20;;;24.40;35.50;;;;;;4994888;28;20195;-70
2022/03/29 12:14:09;;;;;;;10.48;5.97;;;25.10;34.60;;;;;;5011234;28;20206;-71
2022/03/29 12:16:36;;;;;;;14.55;7.32;;;24.70;34.40;;;;;;5011476;28;20194;-71
2022/03/29 12:19:16;;;;;;;12.13;6.85;;;24.40;35.50;;;;;;5011031;28;20500;-69
2022/03/29 12:21:48;;;;;;;11.95;6.40;;;23.60;36.60;;;;;;5011505;28;20172;-71
2022/03/29 12:24:15;;;;;;;14.13;7.15;;;24.40;36.60;;;;;;5011077;28;20245;-72
2022/03/29 12:26:54;;;;;;;17.08;6.30;;;24.30;35.50;;;;;;5019397;28;20186;-72
2022/03/29 12:29:25;;;;;;;11.15;5.97;;;24.10;36.00;;;;;;5035617;28;20524;-71
2022/03/29 12:31:51;;;;;;;13.32;6.10;;;24.00;36.10;;;;;;5050818;28;20174;-69
2022/03/29 12:34:26;;;;;;;21.40;6.30;;;23.70;36.10;;;;;;5011609;28;20207;-73
2022/03/29 12:36:54;;;;;;;14.68;6.88;;;25.50;35.70;;;;;;5025382;28;20197;-73
2022/03/29 12:39:21;;;;;;;16.98;7.15;;;28.20;32.10;;;;;;5020942;28;20619;-73
2022/03/29 12:41:55;;;;;;;16.23;6.97;;;27.90;31.20;;;;;;5023255;28;20309;-75
2022/03/29 12:44:43;;;;;;;13.70;5.95;;;26.90;32.00;;;;;;5023846;28;20243;-71
2022/03/29 12:47:09;;;;;;;9.18;5.80;;;26.40;32.80;;;;;;5023519;28;20222;-72
2022/03/29 12:49:36;;;;;;;9.90;6.15;;;25.30;32.70;;;;;;5029865;28;20234;-74
2022/03/29 12:52:07;;;;;;;13.40;7.05;;;25.00;33.50;;;;;;5021020;28;20291;-74
2022/03/29 12:54:42;;;;;;;11.68;5.35;;;24.30;34.10;;;;;;5028107;28;20209;-74